Time,TemperatureF,DewpointF,PressureIn,WindDirection,WindDirectionDegrees,WindSpeedMPH,WindSpeedGustMPH,Humidity,HourlyPrecipIn,Conditions,Clouds,dailyrainin,SolarRadiationWatts/m^2,SoftwareType,DateUTC
2013-09-04 00:03:00,54.2,52.8,29.87,West,273,0.0,0.0,95,0.00,CLR,CLR,0.00,0.0,WeatherDisplay:10.37,2013-09-04 05:03:00,
2013-09-04 00:08:00,54.2,53.1,29.88,West,273,0.0,0.0,96,0.00,CLR,CLR,0.00,0.0,WeatherDisplay:10.37,2013-09-04 05:08:00,
2013-09-04 00:13:00,54.2,53.1,29.87,West,273,0.0,0.0,96,0.00,CLR,CLR,0.00,0.0,WeatherDisplay:10.37,2013-09-04 05:13:00,
2013-09-04 00:18:00,54.1,53.0,29.87,West,273,0.0,0.0,96,0.00,CLR,CLR,0.00,0.0,WeatherDisplay:10.37,2013-09-04 05:18:00,
2013-09-04 00:23:00,54.2,53.1,29.88,West,273,0.0,0.0,96,0.00,CLR,CLR,0.00,0.0,WeatherDisplay:10.37,2013-09-04 05:23:00,
2013-09-04 00:28:00,54.1,53.0,29.88,West,273,0.0,0.0,96,0.00,CLR,CLR,0.00,0.0,WeatherDisplay:10.37,2013-09-04 05:28:00,
2013-09-04 00:33:00,54.3,53.5,29.88,West,273,0.0,1.0,97,0.00,CLR,CLR,0.00,0.0,WeatherDisplay:10.37,2013-09-04 05:33:00,
2013-09-04 00:38:00,54.5,53.7,29.88,West,273,0.0,0.0,97,0.00,CLR,CLR,0.00,0.0,WeatherDisplay:10.37,2013-09-04 05:38:00,
2013-09-04 00:43:00,54.3,53.2,29.88,West,273,0.0,0.0,96,0.00,CLR,CLR,0.00,0.0,WeatherDisplay:10.37,2013-09-04 05:43:00,
2013-09-04 00:48:00,54.1,53.0,29.88,West,273,0.0,0.0,96,0.00,CLR,CLR,0.00,0.0,WeatherDisplay:10.37,2013-09-04 05:48:00,
2013-09-04 00:53:00,53.8,52.7,29.88,West,273,0.0,0.0,96,0.00,CLR,CLR,0.00,0.0,WeatherDisplay:10.37,2013-09-04 05:53:00,
2013-09-04 00:58:00,53.5,52.4,29.88,West,273,0.0,0.0,96,0.00,CLR,CLR,0.00,0.0,WeatherDisplay:10.37,2013-09-04 05:58:00,
2013-09-04 01:03:00,53.7,52.9,29.88,West,273,0.0,0.0,97,0.00,CLR,CLR,0.00,0.0,WeatherDisplay:10.37,2013-09-04 06:03:00,
2013-09-04 01:08:00,53.6,52.5,29.88,West,273,0.0,0.0,96,0.00,CLR,CLR,0.00,0.0,WeatherDisplay:10.37,2013-09-04 06:08:00,
2013-09-04 01:13:00,53.3,52.2,29.88,West,273,0.0,0.0,96,0.00,CLR,CLR,0.00,0.0,WeatherDisplay:10.37,2013-09-04 06:13:00,
2013-09-04 01:18:00,53.1,52.0,29.89,West,273,0.0,0.0,96,0.00,CLR,CLR,0.00,0.0,WeatherDisplay:10.37,2013-09-04 06:18:00,
2013-09-04 01:23:00,53.0,51.9,29.89,West,273,0.0,0.0,96,0.00,CLR,CLR,0.00,0.0,WeatherDisplay:10.37,2013-09-04 06:23:00,
2013-09-04 01:28:00,52.8,51.7,29.89,West,273,0.0,0.0,96,0.00,CLR,CLR,0.00,0.0,WeatherDisplay:10.37,2013-09-04 06:28:00,
2013-09-04 01:33:00,52.7,51.6,29.89,West,273,0.0,0.0,96,0.00,CLR,CLR,0.00,0.0,WeatherDisplay:10.37,2013-09-04 06:33:00,
2013-09-04 01:38:00,52.8,52.0,29.89,West,273,0.0,0.0,97,0.00,CLR,CLR,0.00,0.0,WeatherDisplay:10.37,2013-09-04 06:38:00,
2013-09-04 01:48:00,53.3,52.8,29.89,West,273,0.0,0.0,98,0.00,CLR,CLR,0.00,0.0,WeatherDisplay:10.37,2013-09-04 06:48:00,
2013-09-04 01:53:00,53.4,52.9,29.89,West,273,0.0,0.0,98,0.00,CLR,CLR,0.00,0.0,WeatherDisplay:10.37,2013-09-04 06:53:00,
2013-09-04 01:58:00,53.5,52.7,29.89,West,273,0.0,0.0,97,0.00,CLR,CLR,0.00,0.0,WeatherDisplay:10.37,2013-09-04 06:58:00,
2013-09-04 02:03:00,53.8,52.9,29.89,West,273,0.0,0.0,97,0.00,CLR,CLR,0.00,0.0,WeatherDisplay:10.37,2013-09-04 07:03:00,
2013-09-04 02:08:00,53.7,52.9,29.89,West,273,0.0,0.0,97,0.00,CLR,CLR,0.00,0.0,WeatherDisplay:10.37,2013-09-04 07:08:00,
2013-09-04 02:18:00,53.1,52.0,29.90,West,273,0.0,0.0,96,0.00,CLR,CLR,0.00,0.0,WeatherDisplay:10.37,2013-09-04 07:18:00,
2013-09-04 02:23:00,52.8,51.7,29.90,West,274,0.0,0.0,96,0.00,CLR,CLR,0.00,0.0,WeatherDisplay:10.37,2013-09-04 07:23:00,
2013-09-04 02:28:00,52.4,51.3,29.90,West,273,0.0,0.0,96,0.00,CLR,CLR,0.00,0.0,WeatherDisplay:10.37,2013-09-04 07:28:00,
2013-09-04 02:38:00,52.5,51.6,29.90,West,273,0.0,0.0,97,0.00,CLR,CLR,0.00,0.0,WeatherDisplay:10.37,2013-09-04 07:38:00,
2013-09-04 02:43:00,52.6,51.8,29.90,West,273,0.0,0.0,97,0.00,CLR,CLR,0.00,0.0,WeatherDisplay:10.37,2013-09-04 07:43:00,
2013-09-04 02:48:00,52.5,51.6,29.90,West,273,0.0,0.0,97,0.00,CLR,CLR,0.00,0.0,WeatherDisplay:10.37,2013-09-04 07:48:00,
2013-09-04 02:53:00,52.2,51.1,29.90,West,273,0.0,0.0,96,0.00,CLR,CLR,0.00,0.0,WeatherDisplay:10.37,2013-09-04 07:53:00,
2013-09-04 02:58:00,52.2,51.3,29.90,West,273,0.0,0.0,97,0.00,CLR,CLR,0.00,0.0,WeatherDisplay:10.37,2013-09-04 07:58:00,
2013-09-04 03:03:00,52.5,51.9,29.90,West,273,0.0,0.0,98,0.00,CLR,CLR,0.00,0.0,WeatherDisplay:10.37,2013-09-04 08:03:00,
2013-09-04 03:08:00,52.7,52.2,29.90,West,273,0.0,0.0,98,0.00,CLR,CLR,0.00,0.0,WeatherDisplay:10.37,2013-09-04 08:08:00,
2013-09-04 03:13:00,52.7,52.2,29.91,West,273,0.0,0.0,98,0.00,CLR,CLR,0.00,0.0,WeatherDisplay:10.37,2013-09-04 08:13:00,
2013-09-04 03:18:00,52.5,51.7,29.91,West,273,0.0,0.0,97,0.00,CLR,CLR,0.00,0.0,WeatherDisplay:10.37,2013-09-04 08:18:00,
2013-09-04 03:23:00,52.0,50.9,29.91,West,273,0.0,0.0,96,0.00,CLR,CLR,0.00,0.0,WeatherDisplay:10.37,2013-09-04 08:23:00,
2013-09-04 03:28:00,51.6,50.5,29.91,West,273,0.0,0.0,96,0.00,CLR,CLR,0.00,0.0,WeatherDisplay:10.37,2013-09-04 08:28:00,
2013-09-04 03:33:00,51.5,50.7,29.91,West,273,0.0,0.0,97,0.00,CLR,CLR,0.00,0.0,WeatherDisplay:10.37,2013-09-04 08:33:00,
2013-09-04 03:38:00,51.6,50.8,29.91,West,273,0.0,0.0,97,0.01,RA,RA,0.01,0.0,WeatherDisplay:10.37,2013-09-04 08:38:00,
2013-09-04 03:43:00,51.5,50.7,29.91,West,273,0.0,0.0,97,0.00,RA,RA,0.01,0.0,WeatherDisplay:10.37,2013-09-04 08:43:00,
2013-09-04 03:48:00,51.3,50.5,29.91,West,273,0.0,0.0,97,0.00,CLR,CLR,0.01,0.0,WeatherDisplay:10.37,2013-09-04 08:48:00,
2013-09-04 03:58:00,51.2,50.4,29.91,West,273,0.0,0.0,97,0.00,CLR,CLR,0.01,0.0,WeatherDisplay:10.37,2013-09-04 08:58:00,
2013-09-04 04:03:00,51.2,50.4,29.91,West,273,0.0,0.0,97,0.00,CLR,CLR,0.01,0.0,WeatherDisplay:10.37,2013-09-04 09:03:00,
2013-09-04 04:08:00,51.2,50.4,29.91,West,273,0.0,0.0,97,0.00,CLR,CLR,0.01,0.0,WeatherDisplay:10.37,2013-09-04 09:08:00,
2013-09-04 04:13:00,51.1,50.3,29.91,West,273,0.0,0.0,97,0.00,CLR,CLR,0.01,0.0,WeatherDisplay:10.37,2013-09-04 09:13:00,
2013-09-04 04:18:00,51.1,50.3,29.91,West,273,0.0,0.0,97,0.00,CLR,CLR,0.01,0.0,WeatherDisplay:10.37,2013-09-04 09:18:00,
2013-09-04 04:23:00,50.9,50.1,29.92,West,273,0.0,0.0,97,0.00,CLR,CLR,0.01,0.0,WeatherDisplay:10.37,2013-09-04 09:23:00,
2013-09-04 04:28:00,50.6,49.8,29.91,West,273,0.0,0.0,97,0.00,CLR,CLR,0.01,0.0,WeatherDisplay:10.37,2013-09-04 09:28:00,
2013-09-04 04:33:00,50.4,49.6,29.92,West,273,0.0,0.0,97,0.00,CLR,CLR,0.01,0.0,WeatherDisplay:10.37,2013-09-04 09:33:00,
2013-09-04 04:38:00,50.4,49.6,29.92,West,273,0.0,0.0,97,0.00,CLR,CLR,0.01,0.0,WeatherDisplay:10.37,2013-09-04 09:38:00,
2013-09-04 04:43:00,50.4,49.6,29.92,West,273,0.0,0.0,97,0.00,CLR,CLR,0.01,0.0,WeatherDisplay:10.37,2013-09-04 09:43:00,
2013-09-04 04:48:00,50.3,49.5,29.92,West,273,0.0,0.0,97,0.00,CLR,CLR,0.01,0.0,WeatherDisplay:10.37,2013-09-04 09:48:00,
2013-09-04 04:53:00,50.6,50.1,29.92,West,273,0.0,0.0,98,0.00,CLR,CLR,0.01,0.0,WeatherDisplay:10.37,2013-09-04 09:53:00,
2013-09-04 04:58:00,50.9,50.3,29.92,West,273,0.0,0.0,98,0.00,CLR,CLR,0.01,0.0,WeatherDisplay:10.37,2013-09-04 09:58:00,
2013-09-04 05:03:00,51.0,50.5,29.92,West,273,0.0,0.0,98,0.00,CLR,CLR,0.01,0.0,WeatherDisplay:10.37,2013-09-04 10:03:00,
2013-09-04 05:08:00,51.0,50.5,29.92,West,273,0.0,0.0,98,0.00,CLR,CLR,0.01,0.0,WeatherDisplay:10.37,2013-09-04 10:08:00,
2013-09-04 05:13:00,51.0,50.5,29.92,West,273,0.0,0.0,98,0.00,CLR,CLR,0.01,0.0,WeatherDisplay:10.37,2013-09-04 10:13:00,
2013-09-04 05:18:00,51.8,51.2,29.92,West,273,0.0,0.0,98,0.00,CLR,CLR,0.01,0.0,WeatherDisplay:10.37,2013-09-04 10:18:00,
2013-09-04 05:23:00,52.0,51.5,29.93,West,273,0.0,0.0,98,0.00,CLR,CLR,0.01,0.0,WeatherDisplay:10.37,2013-09-04 10:23:00,
2013-09-04 05:28:00,51.7,51.2,29.93,West,273,0.0,0.0,98,0.00,CLR,CLR,0.01,0.0,WeatherDisplay:10.37,2013-09-04 10:28:00,
2013-09-04 05:33:00,51.3,50.5,29.93,West,273,0.0,0.0,97,0.00,CLR,CLR,0.01,0.0,WeatherDisplay:10.37,2013-09-04 10:33:00,
2013-09-04 05:38:00,51.3,50.8,29.93,West,273,0.0,0.0,98,0.00,CLR,CLR,0.01,0.0,WeatherDisplay:10.37,2013-09-04 10:38:00,
2013-09-04 05:43:00,51.7,51.1,29.93,West,273,0.0,0.0,98,0.00,CLR,CLR,0.01,0.0,WeatherDisplay:10.37,2013-09-04 10:43:00,
2013-09-04 05:48:00,51.8,51.3,29.93,West,273,0.0,0.0,98,0.00,CLR,CLR,0.01,0.0,WeatherDisplay:10.37,2013-09-04 10:48:00,
2013-09-04 05:53:00,51.6,51.0,29.93,West,273,0.0,0.0,98,0.00,CLR,CLR,0.01,0.0,WeatherDisplay:10.37,2013-09-04 10:53:00,
2013-09-04 05:58:00,51.4,50.5,29.93,West,273,0.0,0.0,97,0.00,CLR,CLR,0.01,0.0,WeatherDisplay:10.37,2013-09-04 10:58:00,
2013-09-04 06:03:00,51.0,50.2,29.93,West,273,0.0,0.0,97,0.00,CLR,CLR,0.01,0.0,WeatherDisplay:10.37,2013-09-04 11:03:00,
2013-09-04 06:08:00,50.8,50.0,29.93,West,273,0.0,0.0,97,0.00,CLR,CLR,0.01,0.0,WeatherDisplay:10.37,2013-09-04 11:08:00,
2013-09-04 06:13:00,50.8,50.0,29.93,West,273,0.0,0.0,97,0.00,CLR,CLR,0.01,0.0,WeatherDisplay:10.37,2013-09-04 11:13:00,
2013-09-04 06:18:00,50.7,49.8,29.94,West,273,0.0,0.0,97,0.00,CLR,CLR,0.01,0.0,WeatherDisplay:10.37,2013-09-04 11:18:00,
2013-09-04 06:23:00,50.5,49.7,29.94,West,273,0.0,0.0,97,0.00,CLR,CLR,0.01,0.0,WeatherDisplay:10.37,2013-09-04 11:23:00,
2013-09-04 06:28:00,50.5,50.0,29.94,West,273,0.0,0.0,98,0.00,CLR,CLR,0.01,0.0,WeatherDisplay:10.37,2013-09-04 11:28:00,
2013-09-04 06:33:00,50.5,50.0,29.94,West,273,0.0,0.0,98,0.00,CLR,CLR,0.01,0.0,WeatherDisplay:10.37,2013-09-04 11:33:00,
2013-09-04 06:38:00,50.5,50.0,29.94,West,273,0.0,0.0,98,0.00,CLR,CLR,0.01,0.0,WeatherDisplay:10.37,2013-09-04 11:38:00,
2013-09-04 06:43:00,50.5,50.0,29.94,West,273,0.0,0.0,98,0.00,CLR,CLR,0.01,0.0,WeatherDisplay:10.37,2013-09-04 11:43:00,
2013-09-04 06:48:00,51.0,50.5,29.94,West,273,0.0,0.0,98,0.00,CLR,CLR,0.01,0.0,WeatherDisplay:10.37,2013-09-04 11:48:00,
2013-09-04 06:53:00,51.3,50.7,29.95,West,273,0.0,0.0,98,0.00,CLR,CLR,0.01,0.0,WeatherDisplay:10.37,2013-09-04 11:53:00,
2013-09-04 06:58:00,51.5,51.0,29.95,West,273,0.0,0.0,98,0.00,CLR,CLR,0.01,0.0,WeatherDisplay:10.37,2013-09-04 11:58:00,
2013-09-04 07:03:00,52.1,51.6,29.95,West,273,0.0,0.0,98,0.00,CLR,CLR,0.01,0.0,WeatherDisplay:10.37,2013-09-04 12:03:00,
2013-09-04 07:08:00,52.8,52.3,29.95,West,273,0.0,0.0,98,0.00,CLR,CLR,0.01,0.0,WeatherDisplay:10.37,2013-09-04 12:08:00,
2013-09-04 07:13:00,53.7,53.4,29.95,West,273,0.0,0.0,99,0.00,CLR,CLR,0.01,0.0,WeatherDisplay:10.37,2013-09-04 12:13:00,
2013-09-04 07:18:00,54.3,54.0,29.95,West,273,0.0,0.0,99,0.00,CLR,CLR,0.01,0.0,WeatherDisplay:10.37,2013-09-04 12:18:00,
2013-09-04 07:23:00,55.0,54.7,29.95,West,273,0.0,0.0,99,0.00,CLR,CLR,0.01,0.0,WeatherDisplay:10.37,2013-09-04 12:23:00,
2013-09-04 07:28:00,55.6,55.3,29.95,West,273,0.0,0.0,99,0.00,CLR,CLR,0.01,0.0,WeatherDisplay:10.37,2013-09-04 12:28:00,
2013-09-04 07:33:00,56.2,55.9,29.95,West,273,0.0,0.0,99,0.00,CLR,CLR,0.01,0.0,WeatherDisplay:10.37,2013-09-04 12:33:00,
2013-09-04 07:38:00,56.4,56.1,29.95,West,273,0.0,0.0,99,0.00,CLR,CLR,0.01,0.0,WeatherDisplay:10.37,2013-09-04 12:38:00,
2013-09-04 07:43:00,56.9,56.6,29.95,West,273,0.0,1.0,99,0.00,CLR,CLR,0.01,0.0,WeatherDisplay:10.37,2013-09-04 12:43:00,
2013-09-04 07:48:00,57.3,57.0,29.95,West,273,1.0,3.0,99,0.00,CLR,CLR,0.01,0.0,WeatherDisplay:10.37,2013-09-04 12:48:00,
2013-09-04 07:53:00,57.9,57.6,29.95,West,273,2.0,3.0,99,0.00,CLR,CLR,0.01,0.0,WeatherDisplay:10.37,2013-09-04 12:53:00,
2013-09-04 07:58:00,58.4,58.1,29.95,West,261,2.0,4.0,99,0.00,CLR,CLR,0.01,0.0,WeatherDisplay:10.37,2013-09-04 12:58:00,
2013-09-04 08:03:00,59.0,58.5,29.95,WSW,252,2.0,4.0,98,0.00,CLR,CLR,0.01,0.0,WeatherDisplay:10.37,2013-09-04 13:03:00,
2013-09-04 08:08:00,59.6,59.0,29.95,WSW,252,2.0,4.0,98,0.00,CLR,CLR,0.01,0.0,WeatherDisplay:10.37,2013-09-04 13:08:00,
2013-09-04 08:13:00,60.1,59.5,29.95,WSW,252,2.0,4.0,98,0.00,CLR,CLR,0.01,0.0,WeatherDisplay:10.37,2013-09-04 13:13:00,
2013-09-04 08:18:00,60.6,59.8,29.95,WSW,252,2.0,4.0,97,0.00,CLR,CLR,0.01,0.0,WeatherDisplay:10.37,2013-09-04 13:18:00,
2013-09-04 08:23:00,61.0,59.9,29.95,WSW,251,2.0,5.0,96,0.00,CLR,CLR,0.01,0.0,WeatherDisplay:10.37,2013-09-04 13:23:00,
2013-09-04 08:28:00,61.6,60.5,29.95,WSW,249,2.0,4.0,96,0.00,CLR,CLR,0.01,0.0,WeatherDisplay:10.37,2013-09-04 13:28:00,
2013-09-04 08:33:00,62.3,60.8,29.95,WSW,248,2.0,5.0,95,0.00,CLR,CLR,0.01,0.0,WeatherDisplay:10.37,2013-09-04 13:33:00,
2013-09-04 08:38:00,63.0,60.9,29.95,WSW,255,1.0,5.0,93,0.00,CLR,CLR,0.01,0.0,WeatherDisplay:10.37,2013-09-04 13:38:00,
2013-09-04 08:48:00,64.0,61.6,29.95,WSW,245,3.0,5.0,92,0.00,CLR,CLR,0.01,0.0,WeatherDisplay:10.37,2013-09-04 13:48:00,
2013-09-04 08:53:00,64.3,61.3,29.95,WSW,241,2.0,5.0,90,0.00,CLR,CLR,0.01,0.0,WeatherDisplay:10.37,2013-09-04 13:53:00,
2013-09-04 08:58:00,64.9,62.2,29.96,WSW,253,1.0,5.0,91,0.00,CLR,CLR,0.01,0.0,WeatherDisplay:10.37,2013-09-04 13:58:00,
2013-09-04 09:03:00,65.7,62.6,29.96,WSW,252,3.0,6.0,90,0.00,CLR,CLR,0.01,0.0,WeatherDisplay:10.37,2013-09-04 14:03:00,
2013-09-04 09:08:00,66.1,62.7,29.96,WSW,242,2.0,6.0,89,0.00,CLR,CLR,0.01,0.0,WeatherDisplay:10.37,2013-09-04 14:08:00,
2013-09-04 09:13:00,66.5,63.2,29.96,WSW,253,2.0,5.0,89,0.00,CLR,CLR,0.01,0.0,WeatherDisplay:10.37,2013-09-04 14:13:00,
2013-09-04 09:18:00,66.8,63.2,29.96,West,271,3.0,6.0,88,0.00,CLR,CLR,0.01,0.0,WeatherDisplay:10.37,2013-09-04 14:18:00,
2013-09-04 09:23:00,67.2,62.9,29.96,West,259,3.0,6.0,86,0.00,CLR,CLR,0.01,0.0,WeatherDisplay:10.37,2013-09-04 14:23:00,
2013-09-04 09:28:00,67.6,63.3,29.96,WSW,250,5.0,7.0,86,0.00,CLR,CLR,0.01,0.0,WeatherDisplay:10.37,2013-09-04 14:28:00,
2013-09-04 09:33:00,68.0,63.3,29.96,WSW,253,3.0,6.0,85,0.00,CLR,CLR,0.01,0.0,WeatherDisplay:10.37,2013-09-04 14:33:00,
2013-09-04 09:38:00,68.4,64.1,29.96,WSW,254,5.0,7.0,86,0.00,CLR,CLR,0.01,0.0,WeatherDisplay:10.37,2013-09-04 14:38:00,
2013-09-04 09:43:00,68.8,64.1,29.96,WSW,248,3.0,5.0,85,0.00,CLR,CLR,0.01,0.0,WeatherDisplay:10.37,2013-09-04 14:43:00,
2013-09-04 09:48:00,69.3,63.9,29.96,WSW,253,2.0,5.0,83,0.00,CLR,CLR,0.01,0.0,WeatherDisplay:10.37,2013-09-04 14:48:00,
2013-09-04 09:53:00,69.5,64.5,29.96,WSW,252,5.0,8.0,84,0.00,CLR,CLR,0.01,0.0,WeatherDisplay:10.37,2013-09-04 14:53:00,
2013-09-04 09:58:00,69.8,64.8,29.95,WSW,250,2.0,7.0,84,0.00,CLR,CLR,0.01,0.0,WeatherDisplay:10.37,2013-09-04 14:58:00,
2013-09-04 10:03:00,70.3,64.2,29.95,WSW,247,5.0,7.0,81,0.00,CLR,CLR,0.01,0.0,WeatherDisplay:10.37,2013-09-04 15:03:00,
2013-09-04 10:08:00,70.6,64.1,29.95,WSW,247,6.0,9.0,80,0.00,CLR,CLR,0.01,0.0,WeatherDisplay:10.37,2013-09-04 15:08:00,
2013-09-04 10:13:00,70.6,64.5,29.95,WSW,248,3.0,8.0,81,0.00,CLR,CLR,0.01,0.0,WeatherDisplay:10.37,2013-09-04 15:13:00,
2013-09-04 10:18:00,71.2,64.7,29.95,WSW,240,5.0,7.0,80,0.00,CLR,CLR,0.01,0.0,WeatherDisplay:10.37,2013-09-04 15:18:00,
2013-09-04 10:23:00,71.7,64.5,29.95,WSW,239,7.0,10.0,78,0.00,CLR,CLR,0.01,0.0,WeatherDisplay:10.37,2013-09-04 15:23:00,
2013-09-04 10:28:00,72.0,64.7,29.96,WSW,245,5.0,7.0,78,0.00,CLR,CLR,0.01,0.0,WeatherDisplay:10.37,2013-09-04 15:28:00,
2013-09-04 10:33:00,72.3,64.3,29.96,WSW,244,5.0,9.0,76,0.00,CLR,CLR,0.01,0.0,WeatherDisplay:10.37,2013-09-04 15:33:00,
2013-09-04 10:38:00,72.7,64.3,29.96,WSW,247,6.0,9.0,75,0.00,CLR,CLR,0.01,0.0,WeatherDisplay:10.37,2013-09-04 15:38:00,
2013-09-04 10:43:00,72.9,63.7,29.96,WSW,253,6.0,9.0,73,0.00,CLR,CLR,0.01,0.0,WeatherDisplay:10.37,2013-09-04 15:43:00,
2013-09-04 10:48:00,73.2,64.4,29.96,WSW,251,6.0,9.0,74,0.00,CLR,CLR,0.01,0.0,WeatherDisplay:10.37,2013-09-04 15:48:00,
2013-09-04 10:53:00,73.5,63.2,29.96,WSW,252,5.0,8.0,70,0.00,CLR,CLR,0.01,0.0,WeatherDisplay:10.37,2013-09-04 15:53:00,
2013-09-04 10:58:00,73.8,63.8,29.96,West,265,5.0,9.0,71,0.00,CLR,CLR,0.01,0.0,WeatherDisplay:10.37,2013-09-04 15:58:00,
2013-09-04 11:03:00,73.9,62.7,29.96,West,260,3.0,7.0,68,0.00,CLR,CLR,0.01,0.0,WeatherDisplay:10.37,2013-09-04 16:03:00,
2013-09-04 11:08:00,74.3,63.5,29.96,WSW,249,5.0,7.0,69,0.00,CLR,CLR,0.01,0.0,WeatherDisplay:10.37,2013-09-04 16:08:00,
2013-09-04 11:13:00,74.8,63.1,29.96,WSW,256,3.0,8.0,67,0.00,CLR,CLR,0.01,0.0,WeatherDisplay:10.37,2013-09-04 16:13:00,
2013-09-04 11:18:00,75.0,62.4,29.96,West,259,5.0,12.0,65,0.00,CLR,CLR,0.01,0.0,WeatherDisplay:10.37,2013-09-04 16:18:00,
2013-09-04 11:23:00,75.1,62.1,29.96,West,259,6.0,9.0,64,0.00,CLR,CLR,0.01,0.0,WeatherDisplay:10.37,2013-09-04 16:23:00,
2013-09-04 11:28:00,75.0,62.9,29.96,West,264,6.0,8.0,66,0.00,CLR,CLR,0.01,0.0,WeatherDisplay:10.37,2013-09-04 16:28:00,
2013-09-04 11:33:00,75.2,64.3,29.96,West,278,3.0,7.0,69,0.00,CLR,CLR,0.01,0.0,WeatherDisplay:10.37,2013-09-04 16:33:00,
2013-09-04 11:38:00,75.7,62.7,29.96,WNW,288,3.0,9.0,64,0.00,CLR,CLR,0.01,0.0,WeatherDisplay:10.37,2013-09-04 16:38:00,
2013-09-04 11:43:00,76.1,62.6,29.96,West,271,5.0,10.0,63,0.00,CLR,CLR,0.01,0.0,WeatherDisplay:10.37,2013-09-04 16:43:00,
2013-09-04 11:48:00,76.0,62.5,29.96,West,268,5.0,10.0,63,0.00,CLR,CLR,0.01,0.0,WeatherDisplay:10.37,2013-09-04 16:48:00,
2013-09-04 11:53:00,76.2,62.2,29.95,West,265,6.0,9.0,62,0.00,CLR,CLR,0.01,0.0,WeatherDisplay:10.37,2013-09-04 16:53:00,
2013-09-04 11:58:00,76.2,61.3,29.95,West,261,5.0,9.0,60,0.00,CLR,CLR,0.01,0.0,WeatherDisplay:10.37,2013-09-04 16:58:00,
2013-09-04 12:03:00,76.5,63.4,29.95,West,274,3.0,7.0,64,0.00,CLR,CLR,0.01,0.0,WeatherDisplay:10.37,2013-09-04 17:03:00,
2013-09-04 12:08:00,76.6,61.2,29.95,WSW,255,7.0,12.0,59,0.00,CLR,CLR,0.01,0.0,WeatherDisplay:10.37,2013-09-04 17:08:00,
2013-09-04 12:13:00,76.5,61.1,29.95,West,266,3.0,10.0,59,0.00,CLR,CLR,0.01,0.0,WeatherDisplay:10.37,2013-09-04 17:13:00,
2013-09-04 12:18:00,76.6,62.2,29.95,WNW,282,3.0,10.0,61,0.00,CLR,CLR,0.01,0.0,WeatherDisplay:10.37,2013-09-04 17:18:00,
2013-09-04 12:23:00,76.7,62.2,29.95,West,272,5.0,9.0,61,0.00,CLR,CLR,0.01,0.0,WeatherDisplay:10.37,2013-09-04 17:23:00,
2013-09-04 12:28:00,76.6,61.7,29.94,WSW,255,5.0,9.0,60,0.00,CLR,CLR,0.01,0.0,WeatherDisplay:10.37,2013-09-04 17:28:00,
2013-09-04 12:33:00,77.0,60.6,29.94,WSW,254,5.0,9.0,57,0.00,CLR,CLR,0.01,0.0,WeatherDisplay:10.37,2013-09-04 17:33:00,
2013-09-04 12:38:00,77.0,62.0,29.94,WSW,255,2.0,8.0,60,0.00,CLR,CLR,0.01,0.0,WeatherDisplay:10.37,2013-09-04 17:38:00,
2013-09-04 12:43:00,77.4,63.4,29.94,WSW,258,3.0,10.0,62,0.00,CLR,CLR,0.01,0.0,WeatherDisplay:10.37,2013-09-04 17:43:00,
2013-09-04 12:48:00,77.7,61.7,29.94,West,263,3.0,9.0,58,0.00,CLR,CLR,0.01,0.0,WeatherDisplay:10.37,2013-09-04 17:48:00,
2013-09-04 12:53:00,77.9,62.4,29.94,West,266,6.0,9.0,59,0.00,CLR,CLR,0.01,0.0,WeatherDisplay:10.37,2013-09-04 17:53:00,
2013-09-04 12:58:00,78.0,62.5,29.94,West,262,3.0,12.0,59,0.00,CLR,CLR,0.01,0.0,WeatherDisplay:10.37,2013-09-04 17:58:00,
2013-09-04 13:03:00,77.7,59.2,29.94,WSW,251,8.0,12.0,53,0.00,CLR,CLR,0.01,0.0,WeatherDisplay:10.37,2013-09-04 18:03:00,
2013-09-04 13:08:00,77.8,62.3,29.94,WSW,249,3.0,9.0,59,0.00,CLR,CLR,0.01,0.0,WeatherDisplay:10.37,2013-09-04 18:08:00,
2013-09-04 13:13:00,78.1,60.1,29.94,WSW,244,3.0,9.0,54,0.00,CLR,CLR,0.01,0.0,WeatherDisplay:10.37,2013-09-04 18:13:00,
2013-09-04 13:18:00,78.4,61.9,29.94,West,268,3.0,9.0,57,0.00,CLR,CLR,0.01,0.0,WeatherDisplay:10.37,2013-09-04 18:18:00,
2013-09-04 13:23:00,78.7,61.2,29.94,West,265,5.0,8.0,55,0.00,CLR,CLR,0.01,0.0,WeatherDisplay:10.37,2013-09-04 18:23:00,
2013-09-04 13:28:00,78.6,59.0,29.94,WSW,251,7.0,12.0,51,0.00,CLR,CLR,0.01,0.0,WeatherDisplay:10.37,2013-09-04 18:28:00,
2013-09-04 13:33:00,78.5,61.5,29.94,WSW,255,3.0,8.0,56,0.00,CLR,CLR,0.01,0.0,WeatherDisplay:10.37,2013-09-04 18:33:00,
2013-09-04 13:38:00,78.8,60.3,29.94,West,262,5.0,8.0,53,0.00,CLR,CLR,0.01,0.0,WeatherDisplay:10.37,2013-09-04 18:38:00,
2013-09-04 13:43:00,79.1,58.9,29.94,West,259,3.0,6.0,50,0.00,CLR,CLR,0.01,0.0,WeatherDisplay:10.37,2013-09-04 18:43:00,
2013-09-04 13:48:00,79.5,59.8,29.94,WSW,253,5.0,10.0,51,0.00,CLR,CLR,0.01,0.0,WeatherDisplay:10.37,2013-09-04 18:48:00,
2013-09-04 13:53:00,79.5,58.7,29.94,WSW,252,5.0,10.0,49,0.00,CLR,CLR,0.01,0.0,WeatherDisplay:10.37,2013-09-04 18:53:00,
2013-09-04 13:58:00,79.4,59.7,29.94,West,263,3.0,8.0,51,0.00,CLR,CLR,0.01,0.0,WeatherDisplay:10.37,2013-09-04 18:58:00,
2013-09-04 14:03:00,79.4,59.1,29.93,West,270,5.0,8.0,50,0.00,CLR,CLR,0.01,0.0,WeatherDisplay:10.37,2013-09-04 19:03:00,
2013-09-04 14:08:00,79.5,59.2,29.93,WNW,282,3.0,7.0,50,0.00,CLR,CLR,0.01,0.0,WeatherDisplay:10.37,2013-09-04 19:08:00,
2013-09-04 14:13:00,80.0,60.8,29.93,West,263,5.0,9.0,52,0.00,CLR,CLR,0.01,0.0,WeatherDisplay:10.37,2013-09-04 19:13:00,
2013-09-04 14:18:00,80.0,60.2,29.93,WSW,240,3.0,9.0,51,0.00,CLR,CLR,0.01,0.0,WeatherDisplay:10.37,2013-09-04 19:18:00,
2013-09-04 14:23:00,80.0,58.5,29.93,WSW,250,5.0,8.0,48,0.00,CLR,CLR,0.01,0.0,WeatherDisplay:10.37,2013-09-04 19:23:00,
2013-09-04 14:28:00,80.1,59.8,29.93,West,273,2.0,7.0,50,0.00,CLR,CLR,0.01,0.0,WeatherDisplay:10.37,2013-09-04 19:28:00,
2013-09-04 14:33:00,80.6,60.8,29.93,West,281,5.0,9.0,51,0.00,CLR,CLR,0.01,0.0,WeatherDisplay:10.37,2013-09-04 19:33:00,
2013-09-04 14:38:00,80.6,58.5,29.93,West,280,5.0,8.0,47,0.00,CLR,CLR,0.01,0.0,WeatherDisplay:10.37,2013-09-04 19:38:00,
2013-09-04 14:48:00,80.5,59.0,29.93,West,265,3.0,7.0,48,0.00,CLR,CLR,0.01,0.0,WeatherDisplay:10.37,2013-09-04 19:48:00,
2013-09-04 14:53:00,80.7,59.2,29.93,WSW,255,5.0,7.0,48,0.00,CLR,CLR,0.01,0.0,WeatherDisplay:10.37,2013-09-04 19:53:00,
2013-09-04 14:58:00,80.4,59.5,29.93,WSW,251,2.0,8.0,49,0.00,CLR,CLR,0.01,0.0,WeatherDisplay:10.37,2013-09-04 19:58:00,
2013-09-04 15:03:00,80.7,58.0,29.93,West,265,3.0,6.0,46,0.00,CLR,CLR,0.01,0.0,WeatherDisplay:10.37,2013-09-04 20:03:00,
2013-09-04 15:08:00,81.0,60.0,29.93,West,265,3.0,9.0,49,0.00,CLR,CLR,0.01,0.0,WeatherDisplay:10.37,2013-09-04 20:08:00,
2013-09-04 15:13:00,81.1,60.7,29.93,WSW,252,5.0,10.0,50,0.00,CLR,CLR,0.01,0.0,WeatherDisplay:10.37,2013-09-04 20:13:00,
2013-09-04 15:18:00,80.7,59.2,29.93,WSW,251,5.0,7.0,48,0.00,CLR,CLR,0.01,0.0,WeatherDisplay:10.37,2013-09-04 20:18:00,
2013-09-04 15:28:00,80.6,60.8,29.93,WSW,241,3.0,8.0,51,0.00,CLR,CLR,0.01,0.0,WeatherDisplay:10.37,2013-09-04 20:28:00,
2013-09-04 15:33:00,81.0,60.6,29.93,WSW,256,5.0,9.0,50,0.00,CLR,CLR,0.01,0.0,WeatherDisplay:10.37,2013-09-04 20:33:00,
2013-09-04 15:38:00,81.1,61.8,29.92,WSW,256,3.0,10.0,52,0.00,CLR,CLR,0.01,0.0,WeatherDisplay:10.37,2013-09-04 20:38:00,
2013-09-04 15:43:00,81.1,60.1,29.92,West,264,2.0,7.0,49,0.00,CLR,CLR,0.01,0.0,WeatherDisplay:10.37,2013-09-04 20:43:00,
2013-09-04 15:48:00,81.0,61.2,29.92,West,268,3.0,7.0,51,0.00,CLR,CLR,0.01,0.0,WeatherDisplay:10.37,2013-09-04 20:48:00,
2013-09-04 15:58:00,81.0,58.9,29.92,WSW,258,6.0,10.0,47,0.00,CLR,CLR,0.01,0.0,WeatherDisplay:10.37,2013-09-04 20:58:00,
2013-09-04 16:03:00,80.8,60.4,29.92,WSW,247,5.0,8.0,50,0.00,CLR,CLR,0.01,0.0,WeatherDisplay:10.37,2013-09-04 21:03:00,
2013-09-04 16:08:00,80.9,59.9,29.92,WSW,258,3.0,8.0,49,0.00,CLR,CLR,0.01,0.0,WeatherDisplay:10.37,2013-09-04 21:08:00,
2013-09-04 16:13:00,80.9,58.8,29.92,WSW,256,6.0,8.0,47,0.00,CLR,CLR,0.01,0.0,WeatherDisplay:10.37,2013-09-04 21:13:00,
2013-09-04 16:18:00,80.9,59.3,29.92,WSW,250,3.0,10.0,48,0.00,CLR,CLR,0.01,0.0,WeatherDisplay:10.37,2013-09-04 21:18:00,
2013-09-04 16:23:00,80.9,60.5,29.92,WSW,251,3.0,9.0,50,0.00,CLR,CLR,0.01,0.0,WeatherDisplay:10.37,2013-09-04 21:23:00,
2013-09-04 16:28:00,80.8,59.9,29.91,WSW,257,3.0,8.0,49,0.00,CLR,CLR,0.01,0.0,WeatherDisplay:10.37,2013-09-04 21:28:00,
2013-09-04 16:33:00,80.9,59.9,29.91,WSW,251,5.0,8.0,49,0.00,CLR,CLR,0.01,0.0,WeatherDisplay:10.37,2013-09-04 21:33:00,
2013-09-04 16:38:00,81.0,60.6,29.91,WSW,246,3.0,6.0,50,0.00,CLR,CLR,0.01,0.0,WeatherDisplay:10.37,2013-09-04 21:38:00,
2013-09-04 16:43:00,81.0,60.0,29.91,WSW,255,3.0,6.0,49,0.00,CLR,CLR,0.01,0.0,WeatherDisplay:10.37,2013-09-04 21:43:00,
2013-09-04 16:48:00,81.0,59.5,29.90,West,270,3.0,5.0,48,0.00,CLR,CLR,0.01,0.0,WeatherDisplay:10.37,2013-09-04 21:48:00,
2013-09-04 16:53:00,80.8,59.9,29.90,West,275,2.0,5.0,49,0.00,CLR,CLR,0.01,0.0,WeatherDisplay:10.37,2013-09-04 21:53:00,
2013-09-04 16:58:00,80.8,60.4,29.90,West,260,2.0,5.0,50,0.00,CLR,CLR,0.01,0.0,WeatherDisplay:10.37,2013-09-04 21:58:00,
2013-09-04 17:03:00,80.9,60.5,29.90,WSW,246,2.0,4.0,50,0.00,CLR,CLR,0.01,0.0,WeatherDisplay:10.37,2013-09-04 22:03:00,
2013-09-04 17:08:00,80.7,59.2,29.90,WSW,245,5.0,7.0,48,0.00,CLR,CLR,0.01,0.0,WeatherDisplay:10.37,2013-09-04 22:08:00,
2013-09-04 17:13:00,80.4,58.9,29.90,WSW,251,2.0,5.0,48,0.00,CLR,CLR,0.01,0.0,WeatherDisplay:10.37,2013-09-04 22:13:00,
2013-09-04 17:18:00,80.3,59.4,29.90,WSW,246,3.0,6.0,49,0.00,CLR,CLR,0.01,0.0,WeatherDisplay:10.37,2013-09-04 22:18:00,
2013-09-04 17:23:00,80.0,59.1,29.90,WSW,251,3.0,5.0,49,0.00,CLR,CLR,0.01,0.0,WeatherDisplay:10.37,2013-09-04 22:23:00,
2013-09-04 17:28:00,79.7,59.4,29.90,WSW,246,5.0,7.0,50,0.00,CLR,CLR,0.01,0.0,WeatherDisplay:10.37,2013-09-04 22:28:00,
2013-09-04 17:33:00,79.6,59.9,29.90,WSW,242,3.0,6.0,51,0.00,CLR,CLR,0.01,0.0,WeatherDisplay:10.37,2013-09-04 22:33:00,
2013-09-04 17:38:00,79.6,59.9,29.90,WSW,246,2.0,5.0,51,0.00,CLR,CLR,0.01,0.0,WeatherDisplay:10.37,2013-09-04 22:38:00,
2013-09-04 17:43:00,79.6,60.4,29.90,West,262,2.0,5.0,52,0.00,CLR,CLR,0.01,0.0,WeatherDisplay:10.37,2013-09-04 22:43:00,
2013-09-04 17:48:00,79.6,59.9,29.89,WSW,258,2.0,5.0,51,0.00,CLR,CLR,0.01,0.0,WeatherDisplay:10.37,2013-09-04 22:48:00,
2013-09-04 17:53:00,79.3,59.1,29.89,WSW,246,2.0,5.0,50,0.00,CLR,CLR,0.01,0.0,WeatherDisplay:10.37,2013-09-04 22:53:00,
2013-09-04 17:58:00,79.2,62.1,29.89,WSW,251,1.0,3.0,56,0.00,CLR,CLR,0.01,0.0,WeatherDisplay:10.37,2013-09-04 22:58:00,
2013-09-04 18:03:00,79.2,61.1,29.89,WSW,254,1.0,3.0,54,0.00,CLR,CLR,0.01,0.0,WeatherDisplay:10.37,2013-09-04 23:03:00,
2013-09-04 18:08:00,78.9,61.4,29.90,WSW,253,2.0,4.0,55,0.00,CLR,CLR,0.01,0.0,WeatherDisplay:10.37,2013-09-04 23:08:00,
2013-09-04 18:13:00,78.3,61.4,29.90,WSW,250,2.0,4.0,56,0.00,CLR,CLR,0.01,0.0,WeatherDisplay:10.37,2013-09-04 23:13:00,
2013-09-04 18:18:00,78.1,63.0,29.89,WSW,248,1.0,3.0,60,0.00,CLR,CLR,0.01,0.0,WeatherDisplay:10.37,2013-09-04 23:18:00,
2013-09-04 18:23:00,77.6,63.1,29.89,WSW,248,1.0,2.0,61,0.00,CLR,CLR,0.01,0.0,WeatherDisplay:10.37,2013-09-04 23:23:00,
2013-09-04 18:28:00,77.3,63.7,29.90,WSW,248,0.0,1.0,63,0.00,CLR,CLR,0.01,0.0,WeatherDisplay:10.37,2013-09-04 23:28:00,
2013-09-04 18:33:00,76.8,64.6,29.90,WSW,248,0.0,1.0,66,0.00,CLR,CLR,0.01,0.0,WeatherDisplay:10.37,2013-09-04 23:33:00,
2013-09-04 18:38:00,76.1,64.7,29.90,WSW,248,0.0,2.0,68,0.00,CLR,CLR,0.01,0.0,WeatherDisplay:10.37,2013-09-04 23:38:00,
2013-09-04 18:43:00,75.5,65.0,29.90,WSW,248,0.0,2.0,70,0.00,CLR,CLR,0.01,0.0,WeatherDisplay:10.37,2013-09-04 23:43:00,
2013-09-04 18:48:00,74.8,64.4,29.90,WSW,248,1.0,2.0,70,0.00,CLR,CLR,0.01,0.0,WeatherDisplay:10.37,2013-09-04 23:48:00,
2013-09-04 18:53:00,74.3,64.7,29.90,WSW,248,1.0,2.0,72,0.00,CLR,CLR,0.01,0.0,WeatherDisplay:10.37,2013-09-04 23:53:00,
2013-09-04 18:58:00,73.8,63.8,29.90,WSW,248,1.0,3.0,71,0.00,CLR,CLR,0.01,0.0,WeatherDisplay:10.37,2013-09-04 23:58:00,
2013-09-04 19:03:00,73.3,63.3,29.90,WSW,248,1.0,2.0,71,0.00,CLR,CLR,0.01,0.0,WeatherDisplay:10.37,2013-09-05 00:03:00,
2013-09-04 19:08:00,72.9,63.3,29.91,WSW,248,0.0,1.0,72,0.00,CLR,CLR,0.01,0.0,WeatherDisplay:10.37,2013-09-05 00:08:00,
2013-09-04 19:13:00,72.4,63.2,29.91,WSW,248,0.0,0.0,73,0.00,CLR,CLR,0.01,0.0,WeatherDisplay:10.37,2013-09-05 00:13:00,
2013-09-04 19:18:00,71.9,63.5,29.91,WSW,248,0.0,0.0,75,0.00,CLR,CLR,0.01,0.0,WeatherDisplay:10.37,2013-09-05 00:18:00,
2013-09-04 19:28:00,70.9,63.3,29.91,WSW,248,0.0,0.0,77,0.00,CLR,CLR,0.01,0.0,WeatherDisplay:10.37,2013-09-05 00:28:00,
2013-09-04 19:33:00,70.4,62.8,29.91,WSW,248,0.0,0.0,77,0.00,CLR,CLR,0.01,0.0,WeatherDisplay:10.37,2013-09-05 00:33:00,
2013-09-04 19:38:00,70.0,62.4,29.91,WSW,248,0.0,0.0,77,0.00,CLR,CLR,0.01,0.0,WeatherDisplay:10.37,2013-09-05 00:38:00,
2013-09-04 19:48:00,69.0,62.5,29.91,WSW,248,0.0,0.0,80,0.00,CLR,CLR,0.01,0.0,WeatherDisplay:10.37,2013-09-05 00:48:00,
2013-09-04 19:53:00,68.3,62.3,29.91,WSW,248,0.0,0.0,81,0.00,CLR,CLR,0.01,0.0,WeatherDisplay:10.37,2013-09-05 00:53:00,
2013-09-04 19:58:00,67.8,62.1,29.91,WSW,248,0.0,0.0,82,0.00,CLR,CLR,0.01,0.0,WeatherDisplay:10.37,2013-09-05 00:58:00,
2013-09-04 20:03:00,67.4,62.1,29.91,WSW,248,0.0,0.0,83,0.00,CLR,CLR,0.01,0.0,WeatherDisplay:10.37,2013-09-05 01:03:00,
2013-09-04 20:08:00,67.0,61.7,29.91,WSW,248,0.0,0.0,83,0.00,CLR,CLR,0.01,0.0,WeatherDisplay:10.37,2013-09-05 01:08:00,
2013-09-04 20:13:00,66.5,61.5,29.92,WSW,248,0.0,0.0,84,0.00,CLR,CLR,0.01,0.0,WeatherDisplay:10.37,2013-09-05 01:13:00,
2013-09-04 20:18:00,66.2,61.9,29.92,WSW,248,0.0,0.0,86,0.00,CLR,CLR,0.01,0.0,WeatherDisplay:10.37,2013-09-05 01:18:00,
2013-09-04 20:23:00,65.8,61.2,29.92,WSW,248,0.0,0.0,85,0.00,CLR,CLR,0.01,0.0,WeatherDisplay:10.37,2013-09-05 01:23:00,
2013-09-04 20:28:00,65.3,61.0,29.92,WSW,248,0.0,0.0,86,0.00,CLR,CLR,0.01,0.0,WeatherDisplay:10.37,2013-09-05 01:28:00,
2013-09-04 20:38:00,64.7,61.1,29.92,WSW,248,0.0,0.0,88,0.00,CLR,CLR,0.01,0.0,WeatherDisplay:10.37,2013-09-05 01:38:00,
2013-09-04 20:48:00,64.2,60.9,29.92,WSW,248,0.0,0.0,89,0.00,CLR,CLR,0.01,0.0,WeatherDisplay:10.37,2013-09-05 01:48:00,
2013-09-04 20:53:00,63.9,60.6,29.92,WSW,248,0.0,0.0,89,0.00,CLR,CLR,0.01,0.0,WeatherDisplay:10.37,2013-09-05 01:53:00,
2013-09-04 20:58:00,63.4,60.1,29.92,WSW,248,0.0,0.0,89,0.00,CLR,CLR,0.01,0.0,WeatherDisplay:10.37,2013-09-05 01:58:00,
2013-09-04 21:03:00,63.0,59.7,29.92,WSW,248,0.0,0.0,89,0.00,CLR,CLR,0.01,0.0,WeatherDisplay:10.37,2013-09-05 02:03:00,
2013-09-04 21:08:00,62.6,59.6,29.93,WSW,248,0.0,0.0,90,0.00,CLR,CLR,0.01,0.0,WeatherDisplay:10.37,2013-09-05 02:08:00,
2013-09-04 21:13:00,62.3,59.3,29.93,WSW,248,0.0,0.0,90,0.00,CLR,CLR,0.01,0.0,WeatherDisplay:10.37,2013-09-05 02:13:00,
2013-09-04 21:18:00,62.1,59.4,29.93,WSW,248,0.0,0.0,91,0.00,CLR,CLR,0.01,0.0,WeatherDisplay:10.37,2013-09-05 02:18:00,
2013-09-04 21:23:00,62.0,59.6,29.93,WSW,248,0.0,0.0,92,0.00,CLR,CLR,0.01,0.0,WeatherDisplay:10.37,2013-09-05 02:23:00,
2013-09-04 21:28:00,61.8,59.5,29.93,WSW,248,0.0,0.0,92,0.00,CLR,CLR,0.01,0.0,WeatherDisplay:10.37,2013-09-05 02:28:00,
2013-09-04 21:33:00,61.5,59.2,29.93,WSW,248,0.0,0.0,92,0.00,CLR,CLR,0.01,0.0,WeatherDisplay:10.37,2013-09-05 02:33:00,
2013-09-04 21:38:00,61.3,59.0,29.93,WSW,248,0.0,0.0,92,0.00,CLR,CLR,0.01,0.0,WeatherDisplay:10.37,2013-09-05 02:38:00,
2013-09-04 21:43:00,61.2,58.9,29.93,WSW,248,0.0,0.0,92,0.00,CLR,CLR,0.01,0.0,WeatherDisplay:10.37,2013-09-05 02:43:00,
2013-09-04 21:48:00,61.3,59.6,29.93,WSW,248,0.0,0.0,94,0.00,CLR,CLR,0.01,0.0,WeatherDisplay:10.37,2013-09-05 02:48:00,
2013-09-04 21:58:00,61.2,59.5,29.93,WSW,248,0.0,0.0,94,0.00,CLR,CLR,0.01,0.0,WeatherDisplay:10.37,2013-09-05 02:58:00,
2013-09-04 22:03:00,61.1,59.4,29.93,SW,232,0.0,1.0,94,0.00,CLR,CLR,0.01,0.0,WeatherDisplay:10.37,2013-09-05 03:03:00,
2013-09-04 22:13:00,60.4,58.4,29.93,SW,217,0.0,1.0,93,0.00,CLR,CLR,0.01,0.0,WeatherDisplay:10.37,2013-09-05 03:13:00,
2013-09-04 22:18:00,60.1,58.1,29.93,SW,223,0.0,0.0,93,0.00,CLR,CLR,0.01,0.0,WeatherDisplay:10.37,2013-09-05 03:18:00,
2013-09-04 22:23:00,60.0,58.2,29.93,SW,233,0.0,0.0,94,0.00,CLR,CLR,0.01,0.0,WeatherDisplay:10.37,2013-09-05 03:23:00,
2013-09-04 22:28:00,60.0,58.6,29.93,WSW,240,0.0,0.0,95,0.00,CLR,CLR,0.01,0.0,WeatherDisplay:10.37,2013-09-05 03:28:00,
2013-09-04 22:33:00,60.1,58.7,29.93,WSW,240,0.0,0.0,95,0.00,CLR,CLR,0.01,0.0,WeatherDisplay:10.37,2013-09-05 03:33:00,
2013-09-04 22:38:00,60.2,58.7,29.93,WSW,240,0.0,0.0,95,0.00,CLR,CLR,0.01,0.0,WeatherDisplay:10.37,2013-09-05 03:38:00,
2013-09-04 22:43:00,60.0,58.3,29.93,WSW,240,0.0,0.0,94,0.00,CLR,CLR,0.01,0.0,WeatherDisplay:10.37,2013-09-05 03:43:00,
2013-09-04 22:48:00,59.9,58.2,29.93,WSW,240,0.0,0.0,94,0.00,CLR,CLR,0.01,0.0,WeatherDisplay:10.37,2013-09-05 03:48:00,
2013-09-04 22:58:00,59.7,58.3,29.93,WSW,240,0.0,0.0,95,0.00,CLR,CLR,0.01,0.0,WeatherDisplay:10.37,2013-09-05 03:58:00,
2013-09-04 23:03:00,59.7,58.2,29.93,WSW,240,0.0,0.0,95,0.00,CLR,CLR,0.01,0.0,WeatherDisplay:10.37,2013-09-05 04:03:00,
2013-09-04 23:08:00,59.6,58.2,29.93,WSW,240,0.0,0.0,95,0.00,CLR,CLR,0.01,0.0,WeatherDisplay:10.37,2013-09-05 04:08:00,
2013-09-04 23:18:00,59.3,57.9,29.93,WSW,240,0.0,0.0,95,0.00,CLR,CLR,0.01,0.0,WeatherDisplay:10.37,2013-09-05 04:18:00,
2013-09-04 23:23:00,59.2,57.5,29.93,WSW,240,0.0,0.0,94,0.00,CLR,CLR,0.01,0.0,WeatherDisplay:10.37,2013-09-05 04:23:00,
2013-09-04 23:28:00,58.9,57.5,29.93,WSW,242,0.0,0.0,95,0.00,CLR,CLR,0.01,0.0,WeatherDisplay:10.37,2013-09-05 04:28:00,
2013-09-04 23:33:00,58.9,57.5,29.93,WSW,243,0.0,0.0,95,0.00,CLR,CLR,0.01,0.0,WeatherDisplay:10.37,2013-09-05 04:33:00,
2013-09-04 23:38:00,59.0,57.6,29.93,WSW,240,0.0,0.0,95,0.00,CLR,CLR,0.01,0.0,WeatherDisplay:10.37,2013-09-05 04:38:00,
2013-09-04 23:43:00,59.1,58.0,29.93,WSW,237,0.0,0.0,96,0.00,CLR,CLR,0.01,0.0,WeatherDisplay:10.37,2013-09-05 04:43:00,
2013-09-04 23:48:00,59.5,58.6,29.93,WSW,237,0.0,0.0,97,0.00,CLR,CLR,0.01,0.0,WeatherDisplay:10.37,2013-09-05 04:48:00,
2013-09-04 23:53:00,59.5,58.4,29.93,WSW,237,0.0,0.0,96,0.00,CLR,CLR,0.01,0.0,WeatherDisplay:10.37,2013-09-05 04:53:00,
2013-09-04 23:58:00,59.4,58.0,29.93,WSW,237,0.0,0.0,95,0.00,RA,RA,0.00,0.0,WeatherDisplay:10.37,2013-09-05 04:58:00,